Time;durP1;ratioP1;P1;durP2;ratioP2;P2;SDS_P1;SDS_P2;PMS_P1;PMS_P2;Temp;Humidity;BMP_temperature;BMP_pressure;BME280_temperature;BME280_humidity;BME280_pressure;Samples;Min_cycle;Max_cycle;Signal;HPM_P1;HPM_P2
2021/07/15 00:01:52;;;;;;;3.87;3.40;;;;;;;18.15;100.00;102007.23;1971669;72;31614;-72
2021/07/15 00:07:18;;;;;;;3.40;3.20;;;;;;;18.20;100.00;102004.91;1971167;72;30941;-70
2021/07/15 00:12:49;;;;;;;3.50;3.20;;;;;;;18.04;100.00;102004.92;1971411;73;31007;-71
2021/07/15 00:18:18;;;;;;;4.07;3.67;;;;;;;17.83;100.00;102000.21;1971284;73;31637;-70
2021/07/15 00:23:44;;;;;;;4.00;3.63;;;;;;;17.67;100.00;102000.20;1971468;73;30939;-72
2021/07/15 00:29:28;;;;;;;4.33;3.23;;;;;;;17.98;100.00;101999.11;2013870;71;30918;-73
2021/07/15 00:35:14;;;;;;;3.63;3.23;;;;;;;17.78;100.00;102003.10;2015775;71;30927;-71
2021/07/15 00:40:40;;;;;;;3.33;3.03;;;;;;;17.47;100.00;102007.48;1971500;73;30996;-72
2021/07/15 00:46:04;;;;;;;4.80;3.40;;;;;;;17.34;100.00;102003.45;1971288;73;31021;-70
2021/07/15 00:51:31;;;;;;;3.80;3.50;;;;;;;17.42;100.00;102010.36;1971421;73;31058;-70
2021/07/15 00:56:56;;;;;;;4.10;3.73;;;;;;;17.26;100.00;102012.56;1971394;73;31008;-73
2021/07/15 01:02:21;;;;;;;3.67;3.37;;;;;;;17.28;100.00;102018.12;1971394;73;31041;-72
2021/07/15 01:07:45;;;;;;;3.33;3.03;;;;;;;17.35;100.00;102016.37;1971526;73;31070;-73
2021/07/15 01:13:27;;;;;;;3.67;3.37;;;;;;;17.05;100.00;102019.02;1971563;73;31057;-70
2021/07/15 01:19:15;;;;;;;3.83;3.23;;;;;;;17.35;100.00;102020.58;1971600;73;31633;-70
2021/07/15 01:25:26;;;;;;;5.00;3.80;;;;;;;17.04;100.00;102025.77;1971308;73;31067;-72
2021/07/15 01:30:57;;;;;;;4.33;3.93;;;;;;;17.13;100.00;102035.20;1971605;73;31019;-72
2021/07/15 01:36:24;;;;;;;4.00;3.20;;;;;;;17.08;100.00;102038.06;1971782;73;31426;-72
2021/07/15 01:41:52;;;;;;;3.67;3.37;;;;;;;16.84;100.00;102044.27;1971772;73;33426;-70
2021/07/15 01:47:19;;;;;;;3.63;3.33;;;;;;;17.04;100.00;102037.55;1971828;73;31548;-70
2021/07/15 01:52:45;;;;;;;3.93;3.63;;;;;;;16.76;100.00;102051.94;1971317;73;30943;-72
2021/07/15 01:58:11;;;;;;;4.17;3.77;;;;;;;17.07;100.00;102053.83;1971391;73;30938;-72
2021/07/15 02:04:00;;;;;;;4.23;3.70;;;;;;;17.15;100.00;102054.00;2015635;71;32984;-71
2021/07/15 02:09:26;;;;;;;4.10;3.70;;;;;;;17.09;100.00;102052.38;1971519;73;33362;-70
2021/07/15 02:14:55;;;;;;;3.83;3.50;;;;;;;16.66;100.00;102064.66;1971417;73;30919;-71
2021/07/15 02:20:23;;;;;;;4.80;4.40;;;;;;;16.54;100.00;102061.39;1969443;73;30938;-72
2021/07/15 02:25:52;;;;;;;5.27;4.17;;;;;;;16.46;100.00;102057.83;1971468;73;30927;-70
2021/07/15 02:31:20;;;;;;;4.27;3.87;;;;;;;16.41;100.00;102057.31;1971658;73;30933;-72
2021/07/15 02:36:46;;;;;;;4.77;4.37;;;;;;;16.24;100.00;102065.33;1971523;73;31489;-72
2021/07/15 02:42:11;;;;;;;5.43;4.90;;;;;;;16.54;100.00;102073.45;1971908;73;30921;-75
2021/07/15 02:47:36;;;;;;;5.93;4.50;;;;;;;16.63;100.00;102064.70;1971375;73;30989;-72
2021/07/15 02:53:02;;;;;;;5.63;5.13;;;;;;;16.66;100.00;102067.47;1971253;73;33187;-70
2021/07/15 02:58:29;;;;;;;5.27;4.77;;;;;;;16.60;100.00;102077.09;1971527;73;33536;-72
2021/07/15 03:04:00;;;;;;;5.10;4.50;;;;;;;16.65;100.00;102075.05;1971398;72;33460;-70
2021/07/15 03:06:34;;;;;;;5.60;4.90;;;;;;;16.59;100.00;102084.66;1934091;74;24243;-72
2021/07/15 03:12:03;;;;;;;5.37;4.87;;;;;;;16.60;100.00;102067.27;1971361;73;31165;-71
2021/07/15 03:17:33;;;;;;;4.87;4.47;;;;;;;16.55;100.00;102077.94;1971430;73;31530;-70
2021/07/15 03:23:03;;;;;;;5.17;4.73;;;;;;;16.57;100.00;102069.21;1971533;73;31549;-72
2021/07/15 03:28:33;;;;;;;5.13;4.53;;;;;;;16.50;100.00;102070.97;1971713;73;30999;-72
2021/07/15 03:34:02;;;;;;;5.20;4.70;;;;;;;16.53;100.00;102070.37;1971628;73;33365;-72
2021/07/15 03:39:27;;;;;;;4.70;4.27;;;;;;;16.49;100.00;102074.06;1971598;73;33500;-70
2021/07/15 03:44:52;;;;;;;5.43;4.90;;;;;;;16.47;100.00;102079.98;1971140;73;31012;-72
2021/07/15 03:50:21;;;;;;;4.90;4.43;;;;;;;16.40;100.00;102082.27;1971508;72;31482;-70
2021/07/15 03:55:47;;;;;;;5.40;4.90;;;;;;;16.42;100.00;102081.43;1971472;73;33345;-70
2021/07/15 04:01:13;;;;;;;5.67;4.83;;;;;;;16.21;100.00;102082.74;1921885;73;39530;-70
2021/07/15 04:06:40;;;;;;;4.30;3.90;;;;;;;16.29;100.00;102091.36;1971363;73;33024;-70
2021/07/15 04:12:08;;;;;;;4.97;4.47;;;;;;;16.35;100.00;102094.37;1971325;73;33501;-70
2021/07/15 04:17:49;;;;;;;5.13;4.63;;;;;;;16.36;100.00;102087.64;1971201;73;33024;-72
2021/07/15 04:23:18;;;;;;;4.87;4.43;;;;;;;16.38;100.00;102082.59;1971127;73;32974;-72
2021/07/15 04:28:45;;;;;;;5.00;4.50;;;;;;;16.34;100.00;102086.27;1971355;73;33316;-70
2021/07/15 04:34:26;;;;;;;5.10;4.63;;;;;;;16.30;100.00;102092.20;1971135;73;32978;-70
2021/07/15 04:39:54;;;;;;;5.43;4.67;;;;;;;16.34;100.00;102084.88;1971234;73;32981;-70
2021/07/15 04:45:23;;;;;;;5.70;4.60;;;;;;;16.36;100.00;102098.02;1971825;73;33433;-70
2021/07/15 04:50:47;;;;;;;5.53;4.97;;;;;;;16.40;100.00;102097.70;1971638;73;30942;-70
2021/07/15 04:56:14;;;;;;;5.83;4.83;;;;;;;16.48;100.00;102105.48;1971676;73;31067;-70
2021/07/15 05:01:40;;;;;;;5.10;4.70;;;;;;;16.55;100.00;102101.78;1971588;73;32918;-70
2021/07/15 05:07:05;;;;;;;4.80;4.40;;;;;;;16.62;100.00;102100.89;1971444;73;30940;-72
2021/07/15 05:12:30;;;;;;;4.87;4.47;;;;;;;16.62;100.00;102088.83;1971645;73;32871;-75
2021/07/15 05:17:54;;;;;;;4.63;4.23;;;;;;;16.65;100.00;102100.30;1971600;73;33018;-70
2021/07/15 05:23:20;;;;;;;4.70;4.20;;;;;;;16.66;100.00;102106.75;1971821;73;31497;-74
2021/07/15 05:28:46;;;;;;;4.83;4.43;;;;;;;16.73;100.00;102104.42;1971606;73;32896;-76
2021/07/15 05:34:11;;;;;;;4.77;4.00;;;;;;;16.86;100.00;102109.34;1971515;73;30995;-71
2021/07/15 05:39:39;;;;;;;5.67;4.27;;;;;;;16.96;100.00;102111.20;1971542;73;30983;-70
2021/07/15 05:45:06;;;;;;;4.97;4.03;;;;;;;16.99;100.00;102111.44;1971278;73;32971;-70
2021/07/15 05:50:30;;;;;;;3.73;3.43;;;;;;;17.04;100.00;102123.18;1971498;73;30996;-71
2021/07/15 05:55:55;;;;;;;4.77;4.30;;;;;;;17.17;100.00;102121.07;1971271;73;30927;-72
2021/07/15 06:01:40;;;;;;;5.57;4.23;;;;;;;17.20;100.00;102119.89;2015063;71;32951;-74
2021/07/15 06:07:05;;;;;;;4.73;4.33;;;;;;;17.33;100.00;102125.36;1971661;73;31001;-71
2021/07/15 06:12:29;;;;;;;4.90;3.73;;;;;;;17.43;100.00;102124.41;1971311;73;33403;-72
2021/07/15 06:17:54;;;;;;;4.13;3.77;;;;;;;17.55;100.00;102124.23;1971374;73;30935;-73
2021/07/15 06:23:18;;;;;;;3.40;3.10;;;;;;;17.63;100.00;102122.75;1971412;73;33344;-71
2021/07/15 06:29:02;;;;;;;4.87;3.40;;;;;;;17.68;100.00;102129.72;2015591;71;31527;-71
2021/07/15 06:34:27;;;;;;;4.93;4.03;;;;;;;17.62;100.00;102134.59;1971170;72;31481;-71
2021/07/15 06:39:51;;;;;;;3.57;3.27;;;;;;;17.73;100.00;102137.52;1971364;73;31450;-72
2021/07/15 06:45:16;;;;;;;3.50;3.20;;;;;;;17.95;100.00;102138.89;1971437;73;33452;-71
2021/07/15 06:50:41;;;;;;;5.03;3.10;;;;;;;17.95;100.00;102142.55;1971190;73;31141;-73
2021/07/15 06:56:12;;;;;;;3.90;3.47;;;;;;;18.17;100.00;102141.94;1971333;73;31028;-74
2021/07/15 07:01:36;;;;;;;3.67;3.13;;;;;;;18.08;100.00;102154.45;1971536;73;31539;-75
2021/07/15 07:07:01;;;;;;;3.23;2.93;;;;;;;18.39;100.00;102156.22;1971482;73;31413;-74
2021/07/15 07:12:25;;;;;;;3.40;3.10;;;;;;;18.91;100.00;102151.41;1970976;73;30994;-72
2021/07/15 07:17:51;;;;;;;3.37;2.87;;;;;;;19.30;100.00;102159.36;1971859;73;30933;-78
2021/07/15 07:23:17;;;;;;;3.50;3.20;;;;;;;19.56;100.00;102153.49;1971991;73;30924;-79
2021/07/15 07:28:41;;;;;;;4.37;3.43;;;;;;;19.73;100.00;102152.28;1971564;73;31045;-72
2021/07/15 07:34:06;;;;;;;4.57;3.37;;;;;;;19.79;100.00;102151.59;1971607;73;30942;-75
2021/07/15 07:39:30;;;;;;;3.67;3.30;;;;;;;19.94;100.00;102149.26;1971100;73;31033;-75
2021/07/15 07:44:55;;;;;;;4.97;3.20;;;;;;;20.39;100.00;102157.26;1971502;73;31523;-75
2021/07/15 07:50:19;;;;;;;4.30;3.37;;;;;;;20.27;100.00;102158.95;1970935;73;30996;-73
2021/07/15 07:55:44;;;;;;;3.73;3.40;;;;;;;21.02;100.00;102149.69;1971877;73;30945;-74
2021/07/15 08:01:09;;;;;;;5.23;3.80;;;;;;;20.77;100.00;102149.80;1971783;73;31401;-74
2021/07/15 08:06:36;;;;;;;5.47;3.47;;;;;;;20.78;100.00;102155.13;1971880;73;31574;-74
2021/07/15 08:12:01;;;;;;;7.50;4.20;;;;;;;20.75;100.00;102155.75;1971575;73;30949;-74
2021/07/15 08:17:26;;;;;;;5.57;4.43;;;;;;;20.92;100.00;102150.82;1971836;73;30998;-73
2021/07/15 08:22:50;;;;;;;4.60;4.20;;;;;;;21.27;100.00;102149.84;1936641;74;31164;-74
2021/07/15 08:28:15;;;;;;;5.13;4.37;;;;;;;21.43;100.00;102154.50;1971192;73;31038;-74
2021/07/15 08:33:40;;;;;;;5.03;4.53;;;;;;;21.35;100.00;102156.69;1971372;73;31547;-74
2021/07/15 08:39:07;;;;;;;4.20;3.83;;;;;;;21.59;100.00;102159.95;1971812;73;30967;-73
2021/07/15 08:44:32;;;;;;;6.50;5.15;;;;;;;21.57;100.00;102166.50;1971588;73;30922;-73
2021/07/15 08:49:57;;;;;;;5.53;4.95;;;;;;;21.73;100.00;102166.32;1971512;73;30933;-73
2021/07/15 09:01:09;;;;;;;6.80;5.90;;;;;;;21.57;100.00;102154.35;1971673;73;31128;-74
2021/07/15 09:06:34;;;;;;;6.00;4.93;;;;;;;21.48;100.00;102164.22;1971678;73;31062;-74
2021/07/15 09:11:59;;;;;;;4.97;4.50;;;;;;;21.38;100.00;102173.59;1971738;73;30987;-74
2021/07/15 09:17:29;;;;;;;5.07;4.67;;;;;;;21.50;100.00;102170.40;1971323;73;31108;-74
2021/07/15 09:23:00;;;;;;;6.47;5.23;;;;;;;21.40;100.00;102170.68;1972133;73;31011;-73
2021/07/15 09:28:32;;;;;;;6.27;5.60;;;;;;;21.34;100.00;102173.42;1971560;73;31463;-73
2021/07/15 09:34:16;;;;;;;5.42;4.72;;;;;;;21.34;100.00;102173.42;1971765;73;31524;-73
2021/07/15 09:39:46;;;;;;;5.83;5.20;;;;;;;21.22;100.00;102185.31;1971637;73;31009;-73
2021/07/15 09:45:17;;;;;;;5.35;4.83;;;;;;;21.37;100.00;102181.23;1971624;73;31396;-73
2021/07/15 09:50:45;;;;;;;5.43;4.67;;;;;;;21.32;100.00;102186.45;1971145;73;31124;-73
2021/07/15 09:56:16;;;;;;;4.92;4.50;;;;;;;21.46;100.00;102179.28;1971351;73;30985;-74
2021/07/15 10:01:49;;;;;;;5.03;4.00;;;;;;;21.33;100.00;102192.94;1971189;73;31006;-74
2021/07/15 10:07:24;;;;;;;4.70;3.75;;;;;;;20.93;100.00;102210.95;1971519;73;31429;-74
2021/07/15 10:13:16;;;;;;;4.53;3.70;;;;;;;20.89;100.00;102212.18;1971342;73;31067;-73
2021/07/15 10:18:45;;;;;;;5.13;4.10;;;;;;;20.69;100.00;102210.72;1971816;73;31031;-73
2021/07/15 10:24:18;;;;;;;4.40;4.00;;;;;;;20.75;100.00;102212.24;1971038;73;30936;-73
2021/07/15 10:30:04;;;;;;;6.10;4.20;;;;;;;21.02;100.00;102209.02;2015417;71;31436;-72
2021/07/15 10:35:30;;;;;;;4.30;3.90;;;;;;;21.17;100.00;102200.18;1971092;73;31169;-74
2021/07/15 10:40:57;;;;;;;4.67;3.80;;;;;;;21.27;100.00;102200.72;1971246;73;30930;-74
2021/07/15 10:46:23;;;;;;;4.42;4.03;;;;;;;21.51;100.00;102199.51;1971918;73;30947;-76
2021/07/15 10:51:51;;;;;;;5.28;4.42;;;;;;;21.96;100.00;102194.50;1971580;73;31456;-73
2021/07/15 10:57:20;;;;;;;6.87;4.78;;;;;;;22.07;100.00;102202.38;1971490;73;31541;-73
2021/07/15 11:02:46;;;;;;;4.35;3.95;;;;;;;21.76;100.00;102205.26;1971636;73;30961;-76
2021/07/15 11:08:42;;;;;;;6.85;4.03;;;;;;;21.90;100.00;102214.20;1971518;73;30969;-73
2021/07/15 11:14:07;;;;;;;4.03;3.70;;;;;;;21.79;100.00;102214.49;1971568;73;31124;-73
2021/07/15 11:23:01;;;;;;;3.90;3.55;;;;;;;22.21;100.00;102217.77;2060512;69;31190;-73
2021/07/15 11:25:42;;;;;;;5.20;3.87;;;;;;;22.13;100.00;102229.91;2030457;70;24113;-75
2021/07/15 11:28:23;;;;;;;4.97;4.30;;;;;;;22.19;100.00;102225.78;2030440;71;24112;-73
2021/07/15 11:30:55;;;;;;;3.40;3.10;;;;;;;22.35;100.00;102221.88;2030220;71;24555;-74
2021/07/15 11:36:48;;;;;;;3.75;3.30;;;;;;;22.76;100.00;102205.27;1971738;73;30943;-75
2021/07/15 11:42:34;;;;;;;4.92;3.77;;;;;;;22.55;100.00;102209.87;2015914;71;30846;-73
2021/07/15 11:48:49;;;;;;;4.22;3.65;;;;;;;22.27;100.00;102215.63;2015893;71;30860;-76
2021/07/15 11:54:48;;;;;;;4.03;3.40;;;;;;;21.97;100.00;102216.83;2016002;71;31367;-76
2021/07/15 12:00:24;;;;;;;3.45;3.15;;;;;;;21.63;100.00;102226.58;1971852;73;30937;-76
2021/07/15 12:05:54;;;;;;;3.42;3.12;;;;;;;21.76;100.00;102225.63;1972114;73;31561;-73
2021/07/15 12:11:22;;;;;;;4.08;3.67;;;;;;;21.80;100.00;102228.89;1971288;72;30952;-73
2021/07/15 12:16:46;;;;;;;4.10;3.70;;;;;;;21.88;100.00;102232.91;1971519;73;30981;-73
2021/07/15 12:22:11;;;;;;;3.95;2.60;;;;;;;22.15;100.00;102218.53;1971491;73;31038;-73
2021/07/15 12:27:42;;;;;;;3.40;3.00;;;;;;;22.52;100.00;102217.05;1971656;72;31529;-73
2021/07/15 12:33:07;;;;;;;4.17;3.20;;;;;;;22.60;100.00;102213.38;1971176;73;30995;-73
2021/07/15 12:38:34;;;;;;;3.00;2.70;;;;;;;22.64;100.00;102220.05;1971189;73;30920;-73
2021/07/15 12:44:09;;;;;;;3.58;2.95;;;;;;;22.57;100.00;102219.72;1971781;73;31021;-74
2021/07/15 12:49:34;;;;;;;3.42;2.60;;;;;;;22.73;100.00;102220.07;1971214;73;31042;-72
2021/07/15 12:54:59;;;;;;;3.00;2.80;;;;;;;22.79;100.00;102220.75;1971222;73;30961;-73
2021/07/15 13:00:24;;;;;;;3.70;3.02;;;;;;;22.64;100.00;102221.46;1971442;73;31568;-73
2021/07/15 13:05:50;;;;;;;3.85;3.47;;;;;;;22.59;100.00;102224.45;1971232;73;31028;-72
2021/07/15 13:16:58;;;;;;;2.90;2.60;;;;;;;22.91;100.00;102220.31;1971546;73;31007;-72
2021/07/15 13:22:22;;;;;;;4.00;2.80;;;;;;;23.11;100.00;102215.34;1945482;73;31002;-72
2021/07/15 13:28:04;;;;;;;2.90;2.60;;;;;;;23.03;100.00;102226.70;1971643;73;30924;-74
2021/07/15 13:33:29;;;;;;;2.30;2.15;;;;;;;23.03;100.00;102226.70;1971540;73;31349;-73
2021/07/15 13:39:16;;;;;;;2.90;2.60;;;;;;;22.78;100.00;102232.66;2015374;71;30915;-75
2021/07/15 13:44:42;;;;;;;2.98;2.77;;;;;;;22.68;100.00;102232.38;1971521;73;30928;-73
2021/07/15 13:50:11;;;;;;;2.62;2.42;;;;;;;22.55;100.00;102243.28;1971364;73;31085;-73
2021/07/15 13:55:36;;;;;;;2.37;2.22;;;;;;;22.63;100.00;102238.81;1971814;73;30925;-73
2021/07/15 14:01:28;;;;;;;3.35;2.20;;;;;;;22.53;100.00;102244.80;2013760;71;31419;-75
2021/07/15 14:06:53;;;;;;;3.27;2.80;;;;;;;22.57;100.00;102257.13;1971819;73;30984;-77
2021/07/15 14:12:18;;;;;;;3.45;2.10;;;;;;;22.74;100.00;102250.08;1971756;73;31538;-74
2021/07/15 14:17:46;;;;;;;2.65;2.45;;;;;;;23.07;100.00;102246.95;1971686;73;30939;-74
2021/07/15 14:23:15;;;;;;;2.25;1.87;;;;;;;23.35;100.00;102260.16;1971859;73;30997;-75
2021/07/15 14:28:40;;;;;;;2.45;1.57;;;;;;;23.28;100.00;102254.16;1971843;73;30912;-74
2021/07/15 14:34:04;;;;;;;2.72;1.60;;;;;;;23.52;100.00;102257.30;1971973;73;31418;-77
2021/07/15 14:39:30;;;;;;;3.30;2.00;;;;;;;23.48;100.00;102263.41;1971516;73;30957;-73
2021/07/15 14:44:57;;;;;;;2.83;2.22;;;;;;;23.31;100.00;102276.19;1971887;73;31019;-74
2021/07/15 14:50:24;;;;;;;2.27;2.10;;;;;;;23.09;100.00;102282.89;1971520;72;31593;-74
2021/07/15 14:55:49;;;;;;;2.27;2.08;;;;;;;23.10;100.00;102291.63;1972103;73;31004;-74
2021/07/15 15:01:14;;;;;;;5.15;2.40;;;;;;;23.11;100.00;102286.80;1972031;72;31465;-77
2021/07/15 15:06:38;;;;;;;2.45;2.17;;;;;;;23.14;100.00;102291.81;1972095;73;31513;-74
2021/07/15 15:12:03;;;;;;;2.40;2.20;;;;;;;22.89;100.00;102300.56;1971784;73;31434;-74
2021/07/15 15:17:31;;;;;;;2.22;2.02;;;;;;;22.64;100.00;102295.69;1971923;73;31036;-76
2021/07/15 15:22:55;;;;;;;3.22;2.52;;;;;;;22.71;100.00;102306.00;1971825;73;31038;-77
2021/07/15 15:28:20;;;;;;;3.80;3.17;;;;;;;22.59;100.00;102302.35;1971255;73;31093;-75
2021/07/15 15:34:04;;;;;;;2.80;2.60;;;;;;;22.70;100.00;102294.41;2016098;71;31328;-75
2021/07/15 15:39:28;;;;;;;3.25;3.05;;;;;;;22.72;100.00;102292.67;1971960;73;31488;-75
2021/07/15 15:44:52;;;;;;;4.90;2.92;;;;;;;23.00;100.00;102293.98;1972078;73;31523;-76
2021/07/15 15:50:18;;;;;;;3.85;3.05;;;;;;;23.03;100.00;102291.31;1970822;73;31546;-76
2021/07/15 15:55:42;;;;;;;2.83;2.62;;;;;;;22.85;100.00;102300.17;1971723;72;31008;-76
2021/07/15 16:01:08;;;;;;;3.33;2.58;;;;;;;22.88;100.00;102296.09;1972061;73;31511;-76
2021/07/15 16:06:33;;;;;;;3.00;2.80;;;;;;;22.84;100.00;102291.42;1971674;73;30939;-76
2021/07/15 16:12:19;;;;;;;2.98;2.77;;;;;;;22.80;100.00;102289.84;2016354;71;30831;-76
2021/07/15 16:17:44;;;;;;;2.72;2.52;;;;;;;22.75;100.00;102307.00;1971880;73;31017;-74
2021/07/15 16:23:10;;;;;;;2.83;2.35;;;;;;;22.51;100.00;102306.59;1972058;73;31397;-76
2021/07/15 16:28:35;;;;;;;3.25;2.52;;;;;;;22.44;100.00;102304.84;1971947;73;31068;-74
2021/07/15 16:34:03;;;;;;;2.00;1.80;;;;;;;22.33;100.00;102300.09;1971679;73;31657;-73
2021/07/15 16:39:32;;;;;;;2.25;2.05;;;;;;;22.24;100.00;102302.06;1971522;73;31014;-79
2021/07/15 16:44:56;;;;;;;3.77;2.10;;;;;;;22.21;100.00;102299.28;1971673;73;30937;-76
2021/07/15 16:50:22;;;;;;;3.40;2.02;;;;;;;22.22;100.00;102314.28;1971342;73;31039;-82
2021/07/15 16:55:47;;;;;;;3.10;2.05;;;;;;;22.04;100.00;102313.96;1971664;73;32221;-73
2021/07/15 17:01:12;;;;;;;3.17;2.10;;;;;;;22.01;100.00;102327.36;1971487;73;31021;-75
2021/07/15 17:06:36;;;;;;;3.27;2.20;;;;;;;21.95;100.00;102330.09;1970767;73;30942;-73
2021/07/15 17:12:01;;;;;;;3.67;2.10;;;;;;;21.78;100.00;102339.28;1970877;73;31572;-74
2021/07/15 17:17:25;;;;;;;4.33;2.70;;;;;;;21.77;100.00;102342.72;1970841;73;30950;-71
2021/07/15 17:22:52;;;;;;;3.35;2.40;;;;;;;21.80;100.00;102343.47;1936171;74;31692;-74
2021/07/15 17:28:17;;;;;;;3.35;2.92;;;;;;;21.83;100.00;102349.63;1970802;73;31038;-74
2021/07/15 17:33:43;;;;;;;3.55;2.58;;;;;;;21.80;100.00;102349.13;1970781;73;30947;-70
2021/07/15 17:39:07;;;;;;;2.85;2.58;;;;;;;21.80;100.00;102349.13;1970609;73;31360;-73
2021/07/15 17:44:31;;;;;;;2.87;2.40;;;;;;;21.64;100.00;102352.13;1970780;73;31096;-73
2021/07/15 17:49:55;;;;;;;3.70;2.17;;;;;;;21.49;100.00;102355.34;1970838;73;31007;-69
2021/07/15 17:55:20;;;;;;;2.90;2.42;;;;;;;21.41;100.00;102363.19;1970954;72;31547;-70
2021/07/15 18:00:44;;;;;;;7.12;2.72;;;;;;;21.35;100.00;102365.30;1970642;73;30979;-69
2021/07/15 18:06:09;;;;;;;5.78;2.77;;;;;;;21.21;100.00;102360.31;1970771;73;31001;-72
2021/07/15 18:11:34;;;;;;;4.13;2.50;;;;;;;21.27;100.00;102361.00;1970938;73;31489;-72
2021/07/15 18:16:58;;;;;;;4.87;2.70;;;;;;;21.33;100.00;102357.73;1970893;73;33353;-74
2021/07/15 18:22:22;;;;;;;5.70;2.90;;;;;;;21.27;100.00;102372.30;1944652;73;30995;-71
2021/07/15 18:27:47;;;;;;;5.92;3.47;;;;;;;21.17;100.00;102375.40;1970718;73;30978;-71
2021/07/15 18:33:14;;;;;;;7.47;3.87;;;;;;;21.15;100.00;102382.78;1970658;73;31426;-73
2021/07/15 18:38:41;;;;;;;5.28;3.50;;;;;;;21.12;100.00;102388.20;1970724;73;31591;-71
2021/07/15 18:44:06;;;;;;;6.73;3.67;;;;;;;21.07;100.00;102395.38;1970585;73;30986;-68
2021/07/15 18:49:31;;;;;;;5.42;3.90;;;;;;;21.03;100.00;102402.83;1970583;73;30983;-68
2021/07/15 18:54:55;;;;;;;5.85;3.47;;;;;;;20.95;100.00;102406.41;1970300;72;31111;-72
2021/07/15 19:00:22;;;;;;;8.83;3.55;;;;;;;20.89;100.00;102404.27;1970587;73;31046;-72
2021/07/15 19:06:06;;;;;;;6.67;3.40;;;;;;;20.80;100.00;102408.99;2014767;71;31476;-76
2021/07/15 19:11:31;;;;;;;6.27;4.00;;;;;;;20.78;100.00;102409.33;1970868;72;31095;-72
2021/07/15 19:16:55;;;;;;;7.77;3.50;;;;;;;20.69;100.00;102416.03;1970966;72;31484;-70
2021/07/15 19:22:25;;;;;;;5.83;3.03;;;;;;;20.65;100.00;102413.01;1970642;71;31612;-73
2021/07/15 19:28:09;;;;;;;5.57;3.53;;;;;;;20.47;100.00;102425.25;2014893;71;30987;-73
2021/07/15 19:33:34;;;;;;;6.97;4.00;;;;;;;20.40;100.00;102418.62;1970721;73;31667;-69
2021/07/15 19:38:59;;;;;;;7.00;3.80;;;;;;;20.35;100.00;102428.60;1970655;72;31005;-71
2021/07/15 19:44:23;;;;;;;5.33;4.00;;;;;;;20.08;100.00;102427.69;1970656;72;30997;-74
2021/07/15 19:49:48;;;;;;;5.43;3.60;;;;;;;20.11;100.00;102429.31;1970939;73;31546;-71
2021/07/15 19:55:14;;;;;;;5.30;4.53;;;;;;;19.95;100.00;102437.23;1970627;73;30996;-74
2021/07/15 20:00:40;;;;;;;3.80;3.27;;;;;;;19.75;100.00;102443.81;1970651;73;31046;-75
2021/07/15 20:06:04;;;;;;;8.43;4.30;;;;;;;19.54;100.00;102439.09;1970750;73;30945;-75
2021/07/15 20:11:48;;;;;;;5.90;4.00;;;;;;;19.41;100.00;102450.55;2014714;71;33264;-74
2021/07/15 20:17:13;;;;;;;4.40;4.00;;;;;;;19.14;100.00;102444.77;1970684;73;31116;-73
2021/07/15 21:25:01;;;;;;;8.13;5.27;;;;;;;17.38;100.00;102510.16;1970696;72;30945;-75
2021/07/15 21:30:26;;;;;;;5.80;4.70;;;;;;;17.33;100.00;102517.80;1970964;73;31026;-74
2021/07/15 21:35:51;;;;;;;5.70;5.00;;;;;;;17.19;100.00;102518.44;1970611;73;31066;-75
2021/07/15 21:41:19;;;;;;;5.97;5.17;;;;;;;17.08;100.00;102520.16;1970516;73;31029;-75
2021/07/15 21:46:43;;;;;;;7.43;5.13;;;;;;;17.13;100.00;102530.81;1970888;73;30953;-76
2021/07/15 21:52:08;;;;;;;5.87;5.27;;;;;;;16.85;100.00;102535.72;1970752;73;30992;-76
2021/07/15 21:57:32;;;;;;;8.33;5.60;;;;;;;16.83;100.00;102538.80;1970656;73;33389;-76
2021/07/15 22:02:57;;;;;;;7.03;5.50;;;;;;;16.66;100.00;102538.30;1970754;73;31585;-75
2021/07/15 22:08:23;;;;;;;9.63;5.80;;;;;;;16.69;100.00;102532.66;1970807;72;30948;-77
2021/07/15 22:13:47;;;;;;;9.17;5.80;;;;;;;16.66;100.00;102528.48;1970563;73;31303;-75
2021/07/15 22:19:12;;;;;;;8.47;6.23;;;;;;;16.60;100.00;102540.83;1970508;73;31073;-76
2021/07/15 22:24:39;;;;;;;10.27;6.17;;;;;;;16.56;100.00;102546.70;1970690;73;30982;-76
2021/07/15 22:30:11;;;;;;;10.80;7.30;;;;;;;16.41;100.00;102545.34;1970347;73;32949;-75
2021/07/15 22:35:40;;;;;;;11.30;7.03;;;;;;;16.26;100.00;102557.41;1970567;73;31105;-75
2021/07/15 22:41:26;;;;;;;9.93;6.90;;;;;;;16.13;100.00;102556.58;2014964;71;31216;-75
2021/07/15 22:47:11;;;;;;;12.67;7.07;;;;;;;16.05;100.00;102568.36;2014705;71;32826;-74
2021/07/15 22:52:35;;;;;;;11.83;7.53;;;;;;;15.97;100.00;102577.33;1970939;73;32923;-76
2021/07/15 22:58:01;;;;;;;8.67;7.67;;;;;;;16.05;100.00;102577.33;1970788;72;33007;-76
2021/07/15 23:03:26;;;;;;;8.13;6.83;;;;;;;16.14;100.00;102577.89;1970741;73;33465;-76
2021/07/15 23:08:52;;;;;;;10.83;7.83;;;;;;;16.05;100.00;102575.92;1970631;73;31100;-76
2021/07/15 23:14:17;;;;;;;10.90;7.27;;;;;;;15.82;100.00;102582.94;1970718;73;33431;-76
2021/07/15 23:19:42;;;;;;;11.93;7.17;;;;;;;15.64;100.00;102580.66;1970646;73;32971;-76
2021/07/15 23:25:11;;;;;;;12.07;7.17;;;;;;;15.68;100.00;102588.23;1970705;73;31058;-75
2021/07/15 23:30:36;;;;;;;12.20;7.60;;;;;;;15.61;100.00;102589.07;1970579;73;33000;-74
2021/07/15 23:36:01;;;;;;;10.93;7.37;;;;;;;15.49;100.00;102582.27;1970767;73;30992;-76
2021/07/15 23:41:27;;;;;;;14.00;7.27;;;;;;;15.37;100.00;102584.47;1970410;73;32940;-73
2021/07/15 23:46:51;;;;;;;9.60;6.63;;;;;;;15.47;100.00;102583.67;1970525;73;32876;-75
2021/07/15 23:52:17;;;;;;;8.90;6.97;;;;;;;15.33;100.00;102574.09;1970537;73;33189;-76
2021/07/15 23:57:41;;;;;;;14.60;7.60;;;;;;;15.09;100.00;102580.75;1970418;73;32985;-76
